Wetterstation Oberdrees
Wetterdaten: aktuell Montag, 17.12.2018 02:15
Datum Zeit Temp. A. Feuchte A. Luftdruck Regen Wind Richtung Richtung Taupunkt Windchill Windben
17.12.2018 02:15 1,4 C 94 % 1015,0 hPa 0,0 l/m 0,0 km/h (0 Bft) S-SO 164 0,5 C 1,4 C 0,0 km/h (0 Bft)
17.12.2018 02:10 1,5 C 94 % 1015,0 hPa 0,0 l/m 0,0 km/h (0 Bft) S-SO 164 0,6 C 1,5 C 0,0 km/h (0 Bft)
17.12.2018 02:05 1,5 C 94 % 1015,0 hPa 0,0 l/m 0,0 km/h (0 Bft) S-SO 164 0,6 C 1,5 C 0,0 km/h (0 Bft)
17.12.2018 02:00 1,6 C 94 % 1015,1 hPa 0,0 l/m 0,0 km/h (0 Bft) S-SO 164 0,7 C 1,6 C 0,0 km/h (0 Bft)
17.12.2018 01:55 1,6 C 95 % 1015,0 hPa 0,0 l/m 0,0 km/h (0 Bft) S-SO 164 0,9 C 1,6 C 0,0 km/h (0 Bft)
17.12.2018 01:50 1,5 C 95 % 1015,1 hPa 0,0 l/m 0,0 km/h (0 Bft) S-SO 164 0,8 C 1,5 C 0,0 km/h (0 Bft)
17.12.2018 01:45 1,4 C 95 % 1015,1 hPa 0,0 l/m 0,0 km/h (0 Bft) S-SO 164 0,7 C 1,4 C 0,0 km/h (0 Bft)
17.12.2018 01:40 1,4 C 95 % 1015,1 hPa 0,0 l/m 0,0 km/h (0 Bft) S-SO 164 0,7 C 1,4 C 0,0 km/h (0 Bft)
17.12.2018 01:35 1,3 C 95 % 1015,0 hPa 0,0 l/m 0,0 km/h (0 Bft) S-SO 164 0,6 C 1,3 C 0,0 km/h (0 Bft)
17.12.2018 01:30 1,2 C 96 % 1015,1 hPa 0,0 l/m 0,0 km/h (0 Bft) S-SO 164 0,6 C 1,2 C 0,0 km/h (0 Bft)
17.12.2018 01:25 1,1 C 96 % 1015,1 hPa 0,0 l/m 0,1 km/h (0 Bft) S-SO 164 0,5 C 1,1 C 1,6 km/h (1 Bft)
17.12.2018 01:20 0,8 C 96 % 1015,2 hPa 0,0 l/m 0,2 km/h (0 Bft) S-SO 164 0,2 C 0,8 C 1,6 km/h (1 Bft)
17.12.2018 01:15 0,3 C 95 % 1015,2 hPa 0,0 l/m 0,2 km/h (0 Bft) S-SO 167 -0,4 C 0,3 C 1,6 km/h (1 Bft)
17.12.2018 01:10 0,1 C 95 % 1015,3 hPa 0,0 l/m 0,2 km/h (0 Bft) S-SO 164 -0,6 C 0,1 C 3,2 km/h (1 Bft)
17.12.2018 01:05 0,1 C 93 % 1015,2 hPa 0,0 l/m 0,1 km/h (0 Bft) S-SO 158 -0,9 C 0,1 C 1,6 km/h (1 Bft)
17.12.2018 01:00 0,2 C 93 % 1015,3 hPa 0,0 l/m 0,0 km/h (0 Bft) S-SW 212 -0,8 C 0,2 C 0,0 km/h (0 Bft)
17.12.2018 00:55 0,4 C 94 % 1015,3 hPa 0,0 l/m 0,0 km/h (0 Bft) S-SW 212 -0,5 C 0,4 C 0,0 km/h (0 Bft)
17.12.2018 00:50 0,3 C 96 % 1015,2 hPa 0,0 l/m 0,4 km/h (0 Bft) S-SW 211 -0,3 C 0,3 C 1,6 km/h (1 Bft)
17.12.2018 00:45 0,1 C 95 % 1015,1 hPa 0,0 l/m 0,0 km/h (0 Bft) S-SW 211 -0,6 C 0,1 C 1,6 km/h (1 Bft)
17.12.2018 00:40 0,0 C 93 % 1015,1 hPa 0,0 l/m 0,0 km/h (0 Bft) S-SW 211 -1,0 C 0,0 C 0,0 km/h (0 Bft)
17.12.2018 00:35 0,1 C 93 % 1015,0 hPa 0,0 l/m 0,0 km/h (0 Bft) S-SW 211 -0,9 C 0,1 C 0,0 km/h (0 Bft)
17.12.2018 00:30 0,2 C 94 % 1015,0 hPa 0,0 l/m 0,1 km/h (0 Bft) S-SW 211 -0,6 C 0,2 C 1,6 km/h (1 Bft)
17.12.2018 00:25 0,1 C 94 % 1015,0 hPa 0,0 l/m 0,1 km/h (0 Bft) S-SW 211 -0,7 C 0,1 C 1,6 km/h (1 Bft)
17.12.2018 00:20 0,3 C 93 % 1015,1 hPa 0,0 l/m 0,0 km/h (0 Bft) SW 216 -0,7 C 0,3 C 0,0 km/h (0 Bft)
17.12.2018 00:15 0,3 C 93 % 1015,2 hPa 0,0 l/m 0,0 km/h (0 Bft) S-SO 158 -0,7 C 0,3 C 0,0 km/h (0 Bft)
17.12.2018 00:10 0,5 C 92 % 1015,2 hPa 0,0 l/m 0,0 km/h (0 Bft) S-SO 158 -0,6 C 0,5 C 0,0 km/h (0 Bft)
17.12.2018 00:05 0,7 C 91 % 1015,2 hPa 0,0 l/m 0,0 km/h (0 Bft) S-SO 158 -0,6 C 0,7 C 0,0 km/h (0 Bft)
17.12.2018 00:00 0,9 C 91 % 1015,2 hPa 0,0 l/m 0,0 km/h (0 Bft) S-SO 158 -0,4 C 0,9 C 0,0 km/h (0 Bft)
16.12.2018 23:55 1,2 C 91 % 1015,2 hPa 0,0 l/m 0,0 km/h (0 Bft) S-SO 158 -0,1 C 1,2 C 0,0 km/h (0 Bft)
16.12.2018 23:50 1,3 C 92 % 1015,0 hPa 0,0 l/m 0,1 km/h (0 Bft) S-SO 158 0,1 C 1,3 C 1,6 km/h (1 Bft)
16.12.2018 23:45 1,6 C 91 % 1015,1 hPa 0,0 l/m 0,0 km/h (0 Bft) S-SO 159 0,3 C 1,6 C 0,0 km/h (0 Bft)
16.12.2018 23:40 1,8 C 91 % 1015,1 hPa 0,0 l/m 0,1 km/h (0 Bft) S-SO 159 0,5 C 1,8 C 1,6 km/h (1 Bft)
16.12.2018 23:35 1,9 C 92 % 1015,1 hPa 0,0 l/m 0,0 km/h (0 Bft) S-SO 159 0,7 C 1,9 C 0,0 km/h (0 Bft)
16.12.2018 23:30 2,0 C 93 % 1015,1 hPa 0,0 l/m 0,2 km/h (0 Bft) S-SO 159 1,0 C 2,0 C 1,6 km/h (1 Bft)
16.12.2018 23:25 2,1 C 93 % 1014,9 hPa 0,0 l/m 0,3 km/h (0 Bft) S-SO 159 1,1 C 2,1 C 3,2 km/h (1 Bft)
16.12.2018 23:20 1,9 C 94 % 1015,0 hPa 0,0 l/m 0,8 km/h (0 Bft) S 189 1,0 C 1,9 C 3,2 km/h (1 Bft)
16.12.2018 23:15 1,8 C 93 % 1015,0 hPa 0,0 l/m 0,3 km/h (0 Bft) O-SO 119 0,8 C 1,8 C 3,2 km/h (1 Bft)
16.12.2018 23:10 1,8 C 93 % 1014,9 hPa 0,0 l/m 0,1 km/h (0 Bft) SO 125 0,8 C 1,8 C 1,6 km/h (1 Bft)
16.12.2018 23:05 1,8 C 94 % 1014,7 hPa 0,0 l/m 0,3 km/h (0 Bft) SO 125 0,9 C 1,8 C 1,6 km/h (1 Bft)
16.12.2018 23:00 1,7 C 94 % 1014,7 hPa 0,0 l/m 0,2 km/h (0 Bft) SO 125 0,8 C 1,7 C 1,6 km/h (1 Bft)
16.12.2018 22:55 1,6 C 95 % 1014,6 hPa 0,0 l/m 0,0 km/h (0 Bft) O-SO 119 0,9 C 1,6 C 0,0 km/h (0 Bft)
16.12.2018 22:50 1,4 C 94 % 1014,5 hPa 0,0 l/m 0,0 km/h (0 Bft) O-SO 117 0,5 C 1,4 C 0,0 km/h (0 Bft)
16.12.2018 22:45 1,3 C 95 % 1014,5 hPa 0,0 l/m 0,4 km/h (0 Bft) O-SO 117 0,6 C 1,3 C 3,2 km/h (1 Bft)
16.12.2018 22:40 1,2 C 94 % 1014,4 hPa 0,0 l/m 0,3 km/h (0 Bft) SW 216 0,3 C 1,2 C 4,8 km/h (1 Bft)
16.12.2018 22:35 1,2 C 94 % 1014,4 hPa 0,0 l/m 0,3 km/h (0 Bft) O 86 0,3 C 1,2 C 1,6 km/h (1 Bft)
16.12.2018 22:30 1,1 C 94 % 1014,4 hPa 0,0 l/m 0,3 km/h (0 Bft) O 80 0,2 C 1,1 C 3,2 km/h (1 Bft)
16.12.2018 22:25 1,1 C 95 % 1014,4 hPa 0,0 l/m 0,9 km/h (0 Bft) O 80 0,4 C 1,1 C 3,2 km/h (1 Bft)
16.12.2018 22:20 0,9 C 93 % 1014,4 hPa 0,0 l/m 0,2 km/h (0 Bft) O 81 -0,1 C 0,9 C 1,6 km/h (1 Bft)
16.12.2018 22:15 0,9 C 94 % 1014,4 hPa 0,0 l/m 0,0 km/h (0 Bft) O 81 0,0 C 0,9 C 0,0 km/h (0 Bft)
16.12.2018 22:10 0,9 C 94 % 1014,5 hPa 0,0 l/m 0,1 km/h (0 Bft) O 81 0,0 C 0,9 C 1,6 km/h (1 Bft)
16.12.2018 22:05 0,9 C 94 % 1014,5 hPa 0,0 l/m 0,2 km/h (0 Bft) O 81 0,0 C 0,9 C 1,6 km/h (1 Bft)
16.12.2018 22:00 0,8 C 93 % 1014,5 hPa 0,0 l/m 0,0 km/h (0 Bft) O 81 -0,2 C 0,8 C 1,6 km/h (1 Bft)
16.12.2018 21:55 0,9 C 94 % 1014,5 hPa 0,0 l/m 0,0 km/h (0 Bft) O 81 0,0 C 0,9 C 0,0 km/h (0 Bft)
16.12.2018 21:50 0,9 C 94 % 1014,6 hPa 0,0 l/m 0,0 km/h (0 Bft) O 81 0,0 C 0,9 C 0,0 km/h (0 Bft)
16.12.2018 21:45 0,9 C 94 % 1014,5 hPa 0,0 l/m 0,0 km/h (0 Bft) O 81 0,0 C 0,9 C 0,0 km/h (0 Bft)
16.12.2018 21:40 0,9 C 94 % 1014,5 hPa 0,0 l/m 0,0 km/h (0 Bft) O 81 0,0 C 0,9 C 0,0 km/h (0 Bft)
16.12.2018 21:35 0,9 C 94 % 1014,3 hPa 0,0 l/m 0,6 km/h (0 Bft) O 81 0,0 C 0,9 C 4,8 km/h (1 Bft)
16.12.2018 21:30 0,7 C 95 % 1014,2 hPa 0,0 l/m 0,2 km/h (0 Bft) NO 43 -0,0 C 0,7 C 1,6 km/h (1 Bft)
16.12.2018 21:25 0,6 C 94 % 1014,1 hPa 0,0 l/m 0,1 km/h (0 Bft) NO 39 -0,3 C 0,6 C 1,6 km/h (1 Bft)
16.12.2018 21:20 0,5 C 94 % 1014,1 hPa 0,0 l/m 0,2 km/h (0 Bft) NO 39 -0,4 C 0,5 C 1,6 km/h (1 Bft)
16.12.2018 21:15 0,5 C 93 % 1014,3 hPa 0,0 l/m 0,0 km/h (0 Bft) O-NO 76 -0,5 C 0,5 C 0,0 km/h (0 Bft)
16.12.2018 21:10 0,6 C 93 % 1014,1 hPa 0,0 l/m 0,3 km/h (0 Bft) O-NO 75 -0,4 C 0,6 C 3,2 km/h (1 Bft)
16.12.2018 21:05 0,6 C 94 % 1014,0 hPa 0,0 l/m 0,6 km/h (0 Bft) O-NO 74 -0,3 C 0,6 C 3,2 km/h (1 Bft)
16.12.2018 21:00 0,6 C 93 % 1014,0 hPa 0,0 l/m 0,0 km/h (0 Bft) O-NO 74 -0,4 C 0,6 C 0,0 km/h (0 Bft)
16.12.2018 20:55 0,6 C 93 % 1013,9 hPa 0,0 l/m 0,0 km/h (0 Bft) O-NO 74 -0,4 C 0,6 C 0,0 km/h (0 Bft)
16.12.2018 20:50 0,7 C 93 % 1014,1 hPa 0,0 l/m 0,1 km/h (0 Bft) O-NO 74 -0,3 C 0,7 C 1,6 km/h (1 Bft)
16.12.2018 20:45 0,7 C 93 % 1014,0 hPa 0,0 l/m 0,2 km/h (0 Bft) O-NO 74 -0,3 C 0,7 C 1,6 km/h (1 Bft)
16.12.2018 20:40 0,7 C 93 % 1014,0 hPa 0,0 l/m 0,2 km/h (0 Bft) O-NO 74 -0,3 C 0,7 C 3,2 km/h (1 Bft)
16.12.2018 20:35 0,7 C 93 % 1014,1 hPa 0,0 l/m 0,1 km/h (0 Bft) O-NO 69 -0,3 C 0,7 C 1,6 km/h (1 Bft)
16.12.2018 20:30 0,7 C 93 % 1014,1 hPa 0,0 l/m 0,2 km/h (0 Bft) O-NO 69 -0,3 C 0,7 C 3,2 km/h (1 Bft)
16.12.2018 20:25 0,7 C 92 % 1013,9 hPa 0,0 l/m 0,1 km/h (0 Bft) O-NO 75 -0,4 C 0,7 C 1,6 km/h (1 Bft)
16.12.2018 20:20 0,8 C 92 % 1013,9 hPa 0,0 l/m 0,0 km/h (0 Bft) O-NO 74 -0,3 C 0,8 C 0,0 km/h (0 Bft)
16.12.2018 20:15 1,0 C 92 % 1013,8 hPa 0,0 l/m 0,0 km/h (0 Bft) O-NO 74 -0,2 C 1,0 C 0,0 km/h (0 Bft)
16.12.2018 20:10 1,1 C 92 % 1013,9 hPa 0,0 l/m 0,0 km/h (0 Bft) O-NO 74 -0,1 C 1,1 C 1,6 km/h (1 Bft)
16.12.2018 20:05 1,1 C 92 % 1013,8 hPa 0,0 l/m 0,0 km/h (0 Bft) O-NO 74 -0,1 C 1,1 C 1,6 km/h (1 Bft)
16.12.2018 20:00 1,2 C 92 % 1013,9 hPa 0,0 l/m 0,6 km/h (0 Bft) O-NO 74 0,0 C 1,2 C 3,2 km/h (1 Bft)
16.12.2018 19:55 1,2 C 91 % 1013,8 hPa 0,0 l/m 0,3 km/h (0 Bft) O-NO 74 -0,1 C 1,2 C 3,2 km/h (1 Bft)
16.12.2018 19:50 1,3 C 91 % 1013,8 hPa 0,0 l/m 0,0 km/h (0 Bft) N-NO 17 -0,0 C 1,3 C 0,0 km/h (0 Bft)
16.12.2018 19:45 1,4 C 90 % 1013,9 hPa 0,0 l/m 0,0 km/h (0 Bft) N-NO 17 -0,1 C 1,4 C 0,0 km/h (0 Bft)
16.12.2018 19:40 1,6 C 90 % 1013,9 hPa 0,2 l/m 0,0 km/h (0 Bft) N-NO 17 0,1 C 1,6 C 0,0 km/h (0 Bft)
16.12.2018 19:35 1,8 C 90 % 1013,8 hPa 0,0 l/m 0,3 km/h (0 Bft) N-NO 17 0,3 C 1,8 C 1,6 km/h (1 Bft)
16.12.2018 19:30 1,9 C 90 % 1013,8 hPa 0,0 l/m 0,4 km/h (0 Bft) NW 307 0,4 C 1,9 C 3,2 km/h (1 Bft)
16.12.2018 19:25 2,0 C 91 % 1013,7 hPa 0,0 l/m 1,1 km/h (1 Bft) SW 232 0,7 C 2,0 C 4,8 km/h (1 Bft)
16.12.2018 19:20 1,7 C 93 % 1013,7 hPa 0,0 l/m 2,1 km/h (1 Bft) SW 234 0,7 C 1,7 C 6,4 km/h (2 Bft)
16.12.2018 19:15 1,4 C 93 % 1013,6 hPa 0,0 l/m 1,1 km/h (1 Bft) SW 223 0,4 C 1,4 C 4,8 km/h (1 Bft)
16.12.2018 19:10 1,2 C 93 % 1013,5 hPa 0,0 l/m 1,6 km/h (1 Bft) S-SW 203 0,2 C 1,2 C 8,0 km/h (2 Bft)
16.12.2018 19:05 1,0 C 93 % 1013,5 hPa 0,0 l/m 0,2 km/h (0 Bft) SW 221 -0,0 C 1,0 C 4,8 km/h (1 Bft)
16.12.2018 19:00 0,9 C 93 % 1013,5 hPa 0,0 l/m 0,3 km/h (0 Bft) S 185 -0,1 C 0,9 C 3,2 km/h (1 Bft)
16.12.2018 18:55 0,9 C 92 % 1013,5 hPa 0,0 l/m 0,0 km/h (0 Bft) SO 140 -0,2 C 0,9 C 1,6 km/h (1 Bft)
16.12.2018 18:50 0,9 C 91 % 1013,4 hPa 0,0 l/m 0,0 km/h (0 Bft) O-SO 119 -0,4 C 0,9 C 0,0 km/h (0 Bft)
16.12.2018 18:45 1,1 C 91 % 1013,4 hPa 0,0 l/m 0,0 km/h (0 Bft) O-SO 119 -0,2 C 1,1 C 0,0 km/h (0 Bft)
16.12.2018 18:40 1,1 C 92 % 1013,4 hPa 0,0 l/m 0,0 km/h (0 Bft) O-SO 119 -0,1 C 1,1 C 0,0 km/h (0 Bft)
16.12.2018 18:35 1,2 C 93 % 1013,5 hPa 0,0 l/m 0,1 km/h (0 Bft) O-SO 119 0,2 C 1,2 C 1,6 km/h (1 Bft)
16.12.2018 18:30 1,0 C 93 % 1013,4 hPa 0,0 l/m 0,1 km/h (0 Bft) O-SO 106 -0,0 C 1,0 C 1,6 km/h (1 Bft)
16.12.2018 18:25 1,1 C 91 % 1013,4 hPa 0,0 l/m 0,0 km/h (0 Bft) O-SO 105 -0,2 C 1,1 C 0,0 km/h (0 Bft)
16.12.2018 18:20 1,2 C 91 % 1013,3 hPa 0,0 l/m 0,0 km/h (0 Bft) O-SO 105 -0,1 C 1,2 C 0,0 km/h (0 Bft)
16.12.2018 18:15 1,3 C 91 % 1013,3 hPa 0,0 l/m 0,0 km/h (0 Bft) O-SO 105 -0,0 C 1,3 C 0,0 km/h (0 Bft)
16.12.2018 18:10 1,4 C 91 % 1013,2 hPa 0,0 l/m 0,0 km/h (0 Bft) O-SO 105 0,1 C 1,4 C 0,0 km/h (0 Bft)
16.12.2018 18:05 1,5 C 91 % 1013,1 hPa 0,0 l/m 0,0 km/h (0 Bft) O-SO 105 0,2 C 1,5 C 1,6 km/h (1 Bft)
16.12.2018 18:00 1,6 C 91 % 1013,2 hPa 0,0 l/m 0,6 km/h (0 Bft) O-SO 105 0,3 C 1,6 C 3,2 km/h (1 Bft)
16.12.2018 17:55 1,7 C 90 % 1013,2 hPa 0,0 l/m 0,0 km/h (0 Bft) O-SO 112 0,2 C 1,7 C 0,0 km/h (0 Bft)
16.12.2018 17:50 1,8 C 90 % 1013,0 hPa 0,0 l/m 0,0 km/h (0 Bft) O-SO 112 0,3 C 1,8 C 0,0 km/h (0 Bft)
16.12.2018 17:45 1,9 C 90 % 1013,1 hPa 0,0 l/m 0,0 km/h (0 Bft) O-SO 112 0,4 C 1,9 C 0,0 km/h (0 Bft)
16.12.2018 17:40 2,1 C 90 % 1013,1 hPa 0,0 l/m 0,0 km/h (0 Bft) O-SO 112 0,6 C 2,1 C 0,0 km/h (0 Bft)
16.12.2018 17:35 2,1 C 90 % 1013,2 hPa 0,0 l/m 0,1 km/h (0 Bft) O-SO 112 0,6 C 2,1 C 1,6 km/h (1 Bft)
16.12.2018 17:30 2,2 C 90 % 1013,1 hPa 0,0 l/m 0,0 km/h (0 Bft) O-SO 112 0,7 C 2,2 C 0,0 km/h (0 Bft)
16.12.2018 17:25 2,2 C 90 % 1013,0 hPa 0,0 l/m 0,2 km/h (0 Bft) O-SO 112 0,7 C 2,2 C 1,6 km/h (1 Bft)
16.12.2018 17:20 2,2 C 90 % 1013,1 hPa 0,0 l/m 0,2 km/h (0 Bft) O-SO 121 0,7 C 2,2 C 1,6 km/h (1 Bft)
16.12.2018 17:15 2,3 C 90 % 1013,0 hPa 0,0 l/m 1,1 km/h (1 Bft) O-SO 117 0,8 C 2,3 C 3,2 km/h (1 Bft)
16.12.2018 17:10 2,4 C 90 % 1013,1 hPa 0,0 l/m 0,1 km/h (0 Bft) SO 140 0,9 C 2,4 C 1,6 km/h (1 Bft)
16.12.2018 17:05 2,5 C 90 % 1013,2 hPa 0,0 l/m 0,1 km/h (0 Bft) SO 140 1,0 C 2,5 C 1,6 km/h (1 Bft)
16.12.2018 17:00 2,6 C 90 % 1013,1 hPa 0,0 l/m 0,0 km/h (0 Bft) SO 140 1,1 C 2,6 C 1,6 km/h (1 Bft)
16.12.2018 16:55 2,7 C 90 % 1013,1 hPa 0,0 l/m 0,1 km/h (0 Bft) SO 140 1,2 C 2,7 C 1,6 km/h (1 Bft)
16.12.2018 16:50 2,7 C 90 % 1013,0 hPa 0,0 l/m 0,0 km/h (0 Bft) SO 140 1,2 C 2,7 C 0,0 km/h (0 Bft)
16.12.2018 16:45 2,8 C 90 % 1013,0 hPa 0,0 l/m 0,0 km/h (0 Bft) O-SO 105 1,3 C 2,8 C 0,0 km/h (0 Bft)
16.12.2018 16:40 2,8 C 90 % 1013,0 hPa 0,0 l/m 0,0 km/h (0 Bft) O-SO 105 1,3 C 2,8 C 0,0 km/h (0 Bft)
16.12.2018 16:35 2,9 C 90 % 1013,0 hPa 0,0 l/m 0,1 km/h (0 Bft) O-SO 105 1,4 C 2,9 C 3,2 km/h (1 Bft)
16.12.2018 16:30 3,0 C 90 % 1012,8 hPa 0,0 l/m 0,7 km/h (0 Bft) O-SO 105 1,5 C 3,0 C 3,2 km/h (1 Bft)
16.12.2018 16:25 3,1 C 90 % 1012,7 hPa 0,0 l/m 0,1 km/h (0 Bft) O-SO 121 1,6 C 3,1 C 1,6 km/h (1 Bft)
16.12.2018 16:20 3,1 C 91 % 1012,5 hPa 0,0 l/m 0,4 km/h (0 Bft) O-SO 119 1,8 C 3,1 C 1,6 km/h (1 Bft)
16.12.2018 16:15 3,1 C 91 % 1012,7 hPa 0,0 l/m 0,7 km/h (0 Bft) O-SO 122 1,8 C 3,1 C 3,2 km/h (1 Bft)
16.12.2018 16:10 3,1 C 91 % 1012,6 hPa 0,0 l/m 0,2 km/h (0 Bft) S-SO 161 1,8 C 3,1 C 1,6 km/h (1 Bft)
16.12.2018 16:05 3,1 C 91 % 1012,7 hPa 0,0 l/m 0,1 km/h (0 Bft) S-SO 161 1,8 C 3,1 C 1,6 km/h (1 Bft)
16.12.2018 16:00 3,0 C 91 % 1012,7 hPa 0,0 l/m 0,4 km/h (0 Bft) S-SO 159 1,7 C 3,0 C 3,2 km/h (1 Bft)
16.12.2018 15:55 2,9 C 91 % 1012,7 hPa 0,0 l/m 0,0 km/h (0 Bft) O 94 1,6 C 2,9 C 0,0 km/h (0 Bft)
16.12.2018 15:50 2,8 C 92 % 1012,6 hPa 0,0 l/m 0,0 km/h (0 Bft) O 94 1,6 C 2,8 C 0,0 km/h (0 Bft)
16.12.2018 15:45 2,7 C 92 % 1012,6 hPa 0,0 l/m 0,0 km/h (0 Bft) O 94 1,5 C 2,7 C 0,0 km/h (0 Bft)
16.12.2018 15:40 2,7 C 91 % 1012,7 hPa 0,0 l/m 0,4 km/h (0 Bft) O 94 1,4 C 2,7 C 1,6 km/h (1 Bft)
16.12.2018 15:35 2,6 C 91 % 1012,5 hPa 0,2 l/m 1,4 km/h (1 Bft) O 93 1,3 C 2,6 C 3,2 km/h (1 Bft)
16.12.2018 15:30 2,6 C 91 % 1012,5 hPa 0,0 l/m 0,0 km/h (0 Bft) O 98 1,3 C 2,6 C 0,0 km/h (0 Bft)
16.12.2018 15:25 2,5 C 91 % 1012,5 hPa 0,0 l/m 0,0 km/h (0 Bft) O 98 1,2 C 2,5 C 0,0 km/h (0 Bft)
16.12.2018 15:20 2,4 C 91 % 1012,3 hPa 0,0 l/m 0,1 km/h (0 Bft) O 98 1,1 C 2,4 C 1,6 km/h (1 Bft)
16.12.2018 15:15 2,3 C 90 % 1012,3 hPa 0,0 l/m 0,2 km/h (0 Bft) O 97 0,8 C 2,3 C 1,6 km/h (1 Bft)
16.12.2018 15:10 2,2 C 90 % 1012,3 hPa 0,0 l/m 0,4 km/h (0 Bft) O-SO 105 0,7 C 2,2 C 3,2 km/h (1 Bft)
16.12.2018 15:05 2,2 C 89 % 1012,4 hPa 0,2 l/m 0,3 km/h (0 Bft) O 101 0,6 C 2,2 C 3,2 km/h (1 Bft)
16.12.2018 15:00 2,2 C 88 % 1012,4 hPa 0,0 l/m 1,1 km/h (1 Bft) O-SO 105 0,4 C 2,2 C 4,8 km/h (1 Bft)
16.12.2018 14:55 2,2 C 87 % 1012,4 hPa 0,0 l/m 1,0 km/h (0 Bft) O-SO 105 0,3 C 2,2 C 4,8 km/h (1 Bft)
16.12.2018 14:50 2,3 C 87 % 1012,3 hPa 0,0 l/m 0,4 km/h (0 Bft) O 90 0,4 C 2,3 C 3,2 km/h (1 Bft)
16.12.2018 14:45 2,3 C 87 % 1012,2 hPa 0,2 l/m 0,7 km/h (0 Bft) O 101 0,4 C 2,3 C 3,2 km/h (1 Bft)
16.12.2018 14:40 2,2 C 88 % 1012,1 hPa 0,0 l/m 0,6 km/h (0 Bft) O-NO 59 0,4 C 2,2 C 3,2 km/h (1 Bft)
16.12.2018 14:35 2,1 C 87 % 1012,0 hPa 0,0 l/m 1,3 km/h (1 Bft) O 85 0,2 C 2,1 C 6,4 km/h (2 Bft)
16.12.2018 14:30 2,1 C 87 % 1012,0 hPa 0,0 l/m 1,6 km/h (1 Bft) O 101 0,2 C 2,1 C 6,4 km/h (2 Bft)
16.12.2018 14:25 2,0 C 87 % 1012,0 hPa 0,0 l/m 0,9 km/h (0 Bft) O-SO 103 0,1 C 2,0 C 4,8 km/h (1 Bft)
16.12.2018 14:20 2,0 C 87 % 1011,9 hPa 0,2 l/m 0,7 km/h (0 Bft) O-SO 113 0,1 C 2,0 C 6,4 km/h (2 Bft)
16.12.2018 14:15 1,9 C 87 % 1012,0 hPa 0,0 l/m 1,2 km/h (1 Bft) O-SO 109 -0,0 C 1,9 C 3,2 km/h (1 Bft)
16.12.2018 14:10 1,9 C 87 % 1011,9 hPa 0,0 l/m 2,9 km/h (1 Bft) SO 134 -0,0 C 1,9 C 8,0 km/h (2 Bft)
16.12.2018 14:05 1,9 C 86 % 1012,1 hPa 0,0 l/m 3,2 km/h (1 Bft) O 92 -0,2 C 1,9 C 6,4 km/h (2 Bft)
16.12.2018 14:00 2,0 C 86 % 1012,0 hPa 0,0 l/m 2,5 km/h (1 Bft) O 93 -0,1 C 2,0 C 6,4 km/h (2 Bft)
16.12.2018 13:55 2,1 C 86 % 1012,1 hPa 0,0 l/m 2,4 km/h (1 Bft) O-SO 103 0,0 C 2,1 C 9,7 km/h (2 Bft)
16.12.2018 13:50 2,2 C 85 % 1012,0 hPa 0,2 l/m 3,3 km/h (1 Bft) O 96 -0,1 C 2,2 C 9,7 km/h (2 Bft)
16.12.2018 13:45 2,5 C 84 % 1011,9 hPa 0,0 l/m 1,7 km/h (1 Bft) O-SO 107 0,1 C 2,5 C 4,8 km/h (1 Bft)
16.12.2018 13:40 2,8 C 83 % 1012,0 hPa 0,0 l/m 1,9 km/h (1 Bft) O-SO 116 0,2 C 2,8 C 6,4 km/h (2 Bft)
16.12.2018 13:35 2,9 C 84 % 1012,0 hPa 0,2 l/m 1,8 km/h (1 Bft) O 93 0,5 C 2,9 C 4,8 km/h (1 Bft)
16.12.2018 13:30 3,1 C 84 % 1012,0 hPa 0,0 l/m 1,5 km/h (1 Bft) O-SO 105 0,7 C 3,1 C 4,8 km/h (1 Bft)
16.12.2018 13:25 3,1 C 85 % 1012,0 hPa 0,0 l/m 2,2 km/h (1 Bft) SO 125 0,8 C 3,1 C 6,4 km/h (2 Bft)
16.12.2018 13:20 3,1 C 85 % 1012,0 hPa 0,2 l/m 1,1 km/h (1 Bft) O-SO 107 0,8 C 3,1 C 4,8 km/h (1 Bft)
16.12.2018 13:15 3,0 C 85 % 1011,9 hPa 0,0 l/m 1,3 km/h (1 Bft) O-SO 107 0,7 C 3,0 C 4,8 km/h (1 Bft)
16.12.2018 13:10 2,9 C 85 % 1011,9 hPa 0,2 l/m 1,0 km/h (0 Bft) SW 222 0,6 C 2,9 C 4,8 km/h (1 Bft)
16.12.2018 13:05 2,8 C 85 % 1012,0 hPa 0,0 l/m 1,3 km/h (1 Bft) O-SO 115 0,5 C 2,8 C 4,8 km/h (1 Bft)
16.12.2018 13:00 2,7 C 85 % 1012,0 hPa 0,0 l/m 1,0 km/h (0 Bft) O-SO 109 0,4 C 2,7 C 4,8 km/h (1 Bft)
16.12.2018 12:55 2,7 C 84 % 1012,0 hPa 0,0 l/m 0,8 km/h (0 Bft) S-SO 152 0,3 C 2,7 C 3,2 km/h (1 Bft)
16.12.2018 12:50 2,6 C 84 % 1012,0 hPa 0,0 l/m 1,3 km/h (1 Bft) O-NO 71 0,2 C 2,6 C 3,2 km/h (1 Bft)
16.12.2018 12:45 2,6 C 85 % 1012,1 hPa 0,0 l/m 0,7 km/h (0 Bft) SO 127 0,3 C 2,6 C 4,8 km/h (1 Bft)
16.12.2018 12:40 2,5 C 85 % 1012,2 hPa 0,0 l/m 0,6 km/h (0 Bft) O-SO 112 0,2 C 2,5 C 3,2 km/h (1 Bft)
16.12.2018 12:35 2,4 C 85 % 1012,1 hPa 0,0 l/m 1,0 km/h (0 Bft) O-SO 120 0,1 C 2,4 C 3,2 km/h (1 Bft)
16.12.2018 12:30 2,4 C 85 % 1012,1 hPa 0,0 l/m 1,3 km/h (1 Bft) O-SO 108 0,1 C 2,4 C 3,2 km/h (1 Bft)
16.12.2018 12:25 2,5 C 84 % 1012,3 hPa 0,0 l/m 0,3 km/h (0 Bft) O-SO 112 0,1 C 2,5 C 3,2 km/h (1 Bft)
16.12.2018 12:20 2,4 C 84 % 1012,3 hPa 0,0 l/m 0,4 km/h (0 Bft) O-NO 68 -0,0 C 2,4 C 4,8 km/h (1 Bft)
16.12.2018 12:15 2,3 C 84 % 1012,3 hPa 0,0 l/m 0,0 km/h (0 Bft) O-SO 115 -0,1 C 2,3 C 0,0 km/h (0 Bft)
16.12.2018 12:10 2,3 C 85 % 1012,4 hPa 0,0 l/m 0,0 km/h (0 Bft) O-SO 115 0,0 C 2,3 C 0,0 km/h (0 Bft)
16.12.2018 12:05 2,2 C 85 % 1012,4 hPa 0,0 l/m 0,0 km/h (0 Bft) O-SO 115 -0,1 C 2,2 C 0,0 km/h (0 Bft)
16.12.2018 12:00 2,1 C 85 % 1012,4 hPa 0,0 l/m 0,4 km/h (0 Bft) O-SO 115 -0,2 C 2,1 C 3,2 km/h (1 Bft)
16.12.2018 11:55 2,0 C 85 % 1012,3 hPa 0,0 l/m 0,9 km/h (0 Bft) O-SO 114 -0,3 C 2,0 C 3,2 km/h (1 Bft)
16.12.2018 11:50 1,9 C 85 % 1012,4 hPa 0,0 l/m 0,4 km/h (0 Bft) O-SO 116 -0,3 C 1,9 C 3,2 km/h (1 Bft)
16.12.2018 11:45 1,9 C 85 % 1012,4 hPa 0,0 l/m 0,7 km/h (0 Bft) O-SO 116 -0,3 C 1,9 C 3,2 km/h (1 Bft)
16.12.2018 11:40 1,8 C 85 % 1012,4 hPa 0,0 l/m 1,3 km/h (1 Bft) O-SO 119 -0,4 C 1,8 C 4,8 km/h (1 Bft)
16.12.2018 11:35 1,8 C 85 % 1012,3 hPa 0,0 l/m 1,2 km/h (1 Bft) O-SO 115 -0,4 C 1,8 C 4,8 km/h (1 Bft)
16.12.2018 11:30 1,8 C 85 % 1012,3 hPa 0,0 l/m 1,5 km/h (1 Bft) O-SO 109 -0,4 C 1,8 C 3,2 km/h (1 Bft)
16.12.2018 11:25 1,7 C 85 % 1012,3 hPa 0,0 l/m 0,9 km/h (0 Bft) O-SO 111 -0,5 C 1,7 C 4,8 km/h (1 Bft)
16.12.2018 11:20 1,6 C 85 % 1012,4 hPa 0,0 l/m 0,5 km/h (0 Bft) O 97 -0,6 C 1,6 C 3,2 km/h (1 Bft)
16.12.2018 11:15 1,5 C 85 % 1012,6 hPa 0,0 l/m 0,7 km/h (0 Bft) S 169 -0,7 C 1,5 C 4,8 km/h (1 Bft)
16.12.2018 11:10 1,4 C 85 % 1012,5 hPa 0,0 l/m 0,5 km/h (0 Bft) S 176 -0,8 C 1,4 C 3,2 km/h (1 Bft)
16.12.2018 11:05 1,3 C 85 % 1012,6 hPa 0,0 l/m 0,8 km/h (0 Bft) O-SO 106 -0,9 C 1,3 C 3,2 km/h (1 Bft)
16.12.2018 11:00 1,3 C 86 % 1012,5 hPa 0,0 l/m 0,9 km/h (0 Bft) O-SO 123 -0,8 C 1,3 C 3,2 km/h (1 Bft)
16.12.2018 10:55 1,2 C 86 % 1012,5 hPa 0,0 l/m 0,8 km/h (0 Bft) O-SO 111 -0,9 C 1,2 C 3,2 km/h (1 Bft)
16.12.2018 10:50 1,2 C 85 % 1012,5 hPa 0,0 l/m 0,3 km/h (0 Bft) O-SO 119 -1,0 C 1,2 C 4,8 km/h (1 Bft)
16.12.2018 10:45 1,1 C 86 % 1012,4 hPa 0,0 l/m 0,7 km/h (0 Bft) O-SO 111 -1,0 C 1,1 C 3,2 km/h (1 Bft)
16.12.2018 10:40 1,1 C 86 % 1012,5 hPa 0,0 l/m 0,9 km/h (0 Bft) O-SO 105 -1,0 C 1,1 C 4,8 km/h (1 Bft)
16.12.2018 10:35 0,9 C 86 % 1012,4 hPa 0,0 l/m 1,3 km/h (1 Bft) O-SO 122 -1,2 C 0,9 C 4,8 km/h (1 Bft)
16.12.2018 10:30 0,9 C 86 % 1012,4 hPa 0,0 l/m 0,8 km/h (0 Bft) O-SO 119 -1,2 C 0,9 C 3,2 km/h (1 Bft)
16.12.2018 10:25 0,8 C 86 % 1012,5 hPa 0,0 l/m 0,6 km/h (0 Bft) O-SO 120 -1,3 C 0,8 C 3,2 km/h (1 Bft)
16.12.2018 10:20 0,7 C 86 % 1012,5 hPa 0,0 l/m 0,9 km/h (0 Bft) O-SO 106 -1,4 C 0,7 C 4,8 km/h (1 Bft)
16.12.2018 10:15 0,6 C 86 % 1012,4 hPa 0,0 l/m 0,8 km/h (0 Bft) O-SO 115 -1,5 C 0,6 C 4,8 km/h (1 Bft)
16.12.2018 10:10 0,6 C 86 % 1012,4 hPa 0,0 l/m 0,7 km/h (0 Bft) O-SO 107 -1,5 C 0,6 C 4,8 km/h (1 Bft)
16.12.2018 10:05 0,5 C 86 % 1012,3 hPa 0,0 l/m 0,7 km/h (0 Bft) O-SO 111 -1,6 C 0,5 C 3,2 km/h (1 Bft)
16.12.2018 10:00 0,4 C 86 % 1012,3 hPa 0,0 l/m 0,7 km/h (0 Bft) O-SO 115 -1,7 C 0,4 C 3,2 km/h (1 Bft)
16.12.2018 09:55 0,3 C 85 % 1012,3 hPa 0,0 l/m 1,1 km/h (1 Bft) O-SO 111 -1,9 C 0,3 C 4,8 km/h (1 Bft)
16.12.2018 09:50 0,3 C 85 % 1012,2 hPa 0,0 l/m 1,3 km/h (1 Bft) O-SO 107 -1,9 C 0,3 C 4,8 km/h (1 Bft)
16.12.2018 09:45 0,2 C 85 % 1012,4 hPa 0,0 l/m 0,1 km/h (0 Bft) S-SO 168 -2,0 C 0,2 C 1,6 km/h (1 Bft)
16.12.2018 09:40 0,2 C 85 % 1012,5 hPa 0,0 l/m 0,6 km/h (0 Bft) S 182 -2,0 C 0,2 C 3,2 km/h (1 Bft)
16.12.2018 09:35 0,2 C 86 % 1012,4 hPa 0,0 l/m 0,2 km/h (0 Bft) O-SO 117 -1,9 C 0,2 C 3,2 km/h (1 Bft)
16.12.2018 09:30 0,2 C 85 % 1012,3 hPa 0,0 l/m 1,1 km/h (1 Bft) SO 139 -2,0 C 0,2 C 4,8 km/h (1 Bft)
16.12.2018 09:25 0,1 C 85 % 1012,3 hPa 0,0 l/m 0,8 km/h (0 Bft) O 90 -2,1 C 0,1 C 3,2 km/h (1 Bft)
16.12.2018 09:20 0,1 C 85 % 1012,2 hPa 0,0 l/m 3,4 km/h (1 Bft) O-SO 103 -2,1 C 0,1 C 12,9 km/h (3 Bft)
16.12.2018 09:15 0,0 C 85 % 1012,2 hPa 0,0 l/m 1,0 km/h (0 Bft) O 90 -2,2 C 0,0 C 4,8 km/h (1 Bft)
16.12.2018 09:10 -0,1 C 85 % 1012,3 hPa 0,0 l/m 0,8 km/h (0 Bft) S-SO 151 -2,3 C -0,1 C 3,2 km/h (1 Bft)
16.12.2018 09:05 -0,2 C 86 % 1012,2 hPa 0,0 l/m 1,8 km/h (1 Bft) SO 134 -2,3 C -0,2 C 6,4 km/h (2 Bft)
16.12.2018 09:00 -0,2 C 86 % 1012,2 hPa 0,0 l/m 0,6 km/h (0 Bft) S-SO 165 -2,3 C -0,2 C 3,2 km/h (1 Bft)
16.12.2018 08:55 -0,3 C 86 % 1012,2 hPa 0,0 l/m 1,0 km/h (0 Bft) NW 311 -2,3 C -0,3 C 3,2 km/h (1 Bft)
16.12.2018 08:50 -0,5 C 87 % 1012,1 hPa 0,0 l/m 0,3 km/h (0 Bft) SW 220 -2,4 C -0,5 C 3,2 km/h (1 Bft)
16.12.2018 08:45 -0,6 C 87 % 1012,2 hPa 0,0 l/m 0,5 km/h (0 Bft) NO 49 -2,5 C -0,6 C 4,8 km/h (1 Bft)
16.12.2018 08:40 -0,7 C 87 % 1012,0 hPa 0,0 l/m 1,3 km/h (1 Bft) O-SO 117 -2,6 C -0,7 C 6,4 km/h (2 Bft)
16.12.2018 08:35 -0,8 C 87 % 1011,9 hPa 0,0 l/m 1,2 km/h (1 Bft) O-SO 104 -2,7 C -0,8 C 4,8 km/h (1 Bft)
16.12.2018 08:30 -0,9 C 87 % 1011,9 hPa 0,0 l/m 2,1 km/h (1 Bft) O 84 -2,8 C -0,9 C 9,7 km/h (2 Bft)
16.12.2018 08:25 -0,9 C 87 % 1012,0 hPa 0,0 l/m 1,2 km/h (1 Bft) O-SO 109 -2,8 C -0,9 C 4,8 km/h (1 Bft)
16.12.2018 08:20 -1,0 C 87 % 1012,0 hPa 0,0 l/m 1,4 km/h (1 Bft) O 94 -2,9 C -1,0 C 4,8 km/h (1 Bft)
16.12.2018 08:15 -1,0 C 87 % 1012,0 hPa 0,0 l/m 1,7 km/h (1 Bft) O 98 -2,9 C -1,0 C 9,7 km/h (2 Bft)
16.12.2018 08:10 -1,1 C 87 % 1011,9 hPa 0,0 l/m 1,9 km/h (1 Bft) O-SO 109 -3,0 C -1,1 C 6,4 km/h (2 Bft)
16.12.2018 08:05 -1,1 C 87 % 1011,9 hPa 0,0 l/m 1,5 km/h (1 Bft) O 90 -3,0 C -1,1 C 4,8 km/h (1 Bft)
16.12.2018 08:00 -1,0 C 87 % 1011,8 hPa 0,0 l/m 1,6 km/h (1 Bft) O-SO 103 -2,9 C -1,0 C 6,4 km/h (2 Bft)
16.12.2018 07:55 -1,1 C 87 % 1011,7 hPa 0,0 l/m 2,4 km/h (1 Bft) O 91 -3,0 C -1,1 C 9,7 km/h (2 Bft)
16.12.2018 07:50 -1,1 C 87 % 1011,8 hPa 0,0 l/m 0,9 km/h (0 Bft) O-SO 108 -3,0 C -1,1 C 3,2 km/h (1 Bft)
16.12.2018 07:45 -1,1 C 86 % 1011,8 hPa 0,0 l/m 1,8 km/h (1 Bft) SO 132 -3,1 C -1,1 C 4,8 km/h (1 Bft)
16.12.2018 07:40 -1,1 C 86 % 1011,9 hPa 0,0 l/m 2,7 km/h (1 Bft) O 95 -3,1 C -1,1 C 6,4 km/h (2 Bft)
16.12.2018 07:35 -1,1 C 86 % 1011,8 hPa 0,0 l/m 2,5 km/h (1 Bft) NO 40 -3,1 C -1,1 C 6,4 km/h (2 Bft)
16.12.2018 07:30 -1,0 C 86 % 1011,8 hPa 0,0 l/m 2,5 km/h (1 Bft) O 94 -3,0 C -1,0 C 4,8 km/h (1 Bft)
16.12.2018 07:25 -1,0 C 86 % 1011,9 hPa 0,0 l/m 1,4 km/h (1 Bft) O-SO 123 -3,0 C -1,0 C 4,8 km/h (1 Bft)
16.12.2018 07:20 -0,9 C 86 % 1011,8 hPa 0,0 l/m 1,7 km/h (1 Bft) O 97 -2,9 C -0,9 C 6,4 km/h (2 Bft)
16.12.2018 07:15 -0,9 C 86 % 1011,8 hPa 0,0 l/m 2,3 km/h (1 Bft) O-SO 107 -2,9 C -0,9 C 6,4 km/h (2 Bft)
16.12.2018 07:10 -1,0 C 86 % 1011,9 hPa 0,0 l/m 2,6 km/h (1 Bft) O-SO 103 -3,0 C -1,0 C 9,7 km/h (2 Bft)
16.12.2018 07:05 -1,0 C 85 % 1012,0 hPa 0,0 l/m 2,4 km/h (1 Bft) O 98 -3,2 C -1,0 C 6,4 km/h (2 Bft)
16.12.2018 07:00 -1,1 C 86 % 1012,0 hPa 0,0 l/m 1,7 km/h (1 Bft) O-SO 117 -3,1 C -1,1 C 4,8 km/h (1 Bft)
16.12.2018 06:55 -1,1 C 86 % 1012,1 hPa 0,0 l/m 2,6 km/h (1 Bft) O-SO 119 -3,1 C -1,1 C 6,4 km/h (2 Bft)
16.12.2018 06:50 -1,1 C 86 % 1012,1 hPa 0,0 l/m 1,7 km/h (1 Bft) O-SO 103 -3,1 C -1,1 C 4,8 km/h (1 Bft)
16.12.2018 06:45 -1,2 C 86 % 1012,0 hPa 0,0 l/m 2,5 km/h (1 Bft) SO 127 -3,2 C -1,2 C 6,4 km/h (2 Bft)
16.12.2018 06:40 -1,2 C 87 % 1012,1 hPa 0,0 l/m 1,6 km/h (1 Bft) O-SO 106 -3,1 C -1,2 C 4,8 km/h (1 Bft)
16.12.2018 06:35 -1,3 C 87 % 1012,1 hPa 0,0 l/m 2,3 km/h (1 Bft) O-SO 103 -3,2 C -1,3 C 9,7 km/h (2 Bft)
16.12.2018 06:30 -1,3 C 87 % 1011,9 hPa 0,0 l/m 2,9 km/h (1 Bft) O 92 -3,2 C -1,3 C 9,7 km/h (2 Bft)
16.12.2018 06:25 -1,4 C 87 % 1011,9 hPa 0,0 l/m 2,9 km/h (1 Bft) SO 129 -3,3 C -1,4 C 8,0 km/h (2 Bft)
16.12.2018 06:20 -1,4 C 87 % 1012,0 hPa 0,0 l/m 2,5 km/h (1 Bft) O-SO 118 -3,3 C -1,4 C 6,4 km/h (2 Bft)
16.12.2018 06:15 -1,4 C 87 % 1011,9 hPa 0,0 l/m 3,6 km/h (1 Bft) O 93 -3,3 C -1,4 C 6,4 km/h (2 Bft)
16.12.2018 06:10 -1,4 C 88 % 1012,0 hPa 0,0 l/m 3,1 km/h (1 Bft) O-SO 110 -3,1 C -1,4 C 9,7 km/h (2 Bft)
16.12.2018 06:05 -1,4 C 88 % 1012,1 hPa 0,0 l/m 2,0 km/h (1 Bft) SO 144 -3,1 C -1,4 C 6,4 km/h (2 Bft)
16.12.2018 06:00 -1,4 C 88 % 1012,2 hPa 0,0 l/m 2,6 km/h (1 Bft) O-SO 103 -3,1 C -1,4 C 9,7 km/h (2 Bft)
16.12.2018 05:55 -1,4 C 88 % 1012,2 hPa 0,0 l/m 2,1 km/h (1 Bft) O-SO 111 -3,1 C -1,4 C 6,4 km/h (2 Bft)
16.12.2018 05:50 -1,5 C 88 % 1012,2 hPa 0,0 l/m 1,7 km/h (1 Bft) O-SO 108 -3,2 C -1,5 C 4,8 km/h (1 Bft)
16.12.2018 05:45 -1,6 C 88 % 1012,2 hPa 0,0 l/m 2,1 km/h (1 Bft) O-SO 105 -3,3 C -1,6 C 11,3 km/h (2 Bft)
16.12.2018 05:40 -1,6 C 89 % 1012,2 hPa 0,0 l/m 2,6 km/h (1 Bft) O-SO 103 -3,2 C -1,6 C 9,7 km/h (2 Bft)
16.12.2018 05:35 -1,6 C 89 % 1012,1 hPa 0,0 l/m 2,5 km/h (1 Bft) O-SO 117 -3,2 C -1,6 C 6,4 km/h (2 Bft)
16.12.2018 05:30 -1,6 C 89 % 1012,0 hPa 0,0 l/m 3,4 km/h (1 Bft) O-SO 123 -3,2 C -1,6 C 11,3 km/h (2 Bft)
16.12.2018 05:25 -1,6 C 89 % 1012,1 hPa 0,0 l/m 3,7 km/h (1 Bft) O 94 -3,2 C -1,6 C 11,3 km/h (2 Bft)
16.12.2018 05:20 -1,6 C 89 % 1012,1 hPa 0,0 l/m 3,4 km/h (1 Bft) O-SO 108 -3,2 C -1,6 C 9,7 km/h (2 Bft)
16.12.2018 05:15 -1,6 C 89 % 1012,2 hPa 0,0 l/m 4,2 km/h (1 Bft) O-SO 113 -3,2 C -1,6 C 11,3 km/h (2 Bft)
16.12.2018 05:10 -1,6 C 89 % 1012,3 hPa 0,0 l/m 3,5 km/h (1 Bft) O 100 -3,2 C -1,6 C 6,4 km/h (2 Bft)
16.12.2018 05:05 -1,6 C 90 % 1012,3 hPa 0,0 l/m 2,4 km/h (1 Bft) S-SO 153 -3,0 C -1,6 C 4,8 km/h (1 Bft)
16.12.2018 05:00 -1,6 C 90 % 1012,2 hPa 0,0 l/m 2,2 km/h (1 Bft) SO 134 -3,0 C -1,6 C 9,7 km/h (2 Bft)
16.12.2018 04:55 -1,6 C 90 % 1012,1 hPa 0,0 l/m 2,1 km/h (1 Bft) SO 140 -3,0 C -1,6 C 6,4 km/h (2 Bft)
16.12.2018 04:50 -1,6 C 89 % 1012,3 hPa 0,0 l/m 3,1 km/h (1 Bft) SO 128 -3,2 C -1,6 C 12,9 km/h (3 Bft)
16.12.2018 04:45 -1,6 C 89 % 1012,2 hPa 0,0 l/m 3,2 km/h (1 Bft) O 90 -3,2 C -1,6 C 9,7 km/h (2 Bft)
16.12.2018 04:40 -1,6 C 89 % 1012,4 hPa 0,0 l/m 3,2 km/h (1 Bft) O-SO 107 -3,2 C -1,6 C 9,7 km/h (2 Bft)
16.12.2018 04:35 -1,6 C 89 % 1012,4 hPa 0,0 l/m 3,8 km/h (1 Bft) O 94 -3,2 C -1,6 C 9,7 km/h (2 Bft)
16.12.2018 04:30 -1,5 C 89 % 1012,2 hPa 0,0 l/m 4,8 km/h (1 Bft) O 79 -3,1 C -1,5 C 11,3 km/h (2 Bft)
16.12.2018 04:25 -1,5 C 89 % 1012,3 hPa 0,0 l/m 5,7 km/h (2 Bft) O-SO 117 -3,1 C -1,5 C 12,9 km/h (3 Bft)
16.12.2018 04:20 -1,4 C 89 % 1012,3 hPa 0,0 l/m 3,8 km/h (1 Bft) O 96 -3,0 C -1,4 C 9,7 km/h (2 Bft)
16.12.2018 04:15 -1,4 C 89 % 1012,4 hPa 0,0 l/m 4,6 km/h (1 Bft) O-SO 110 -3,0 C -1,4 C 9,7 km/h (2 Bft)
16.12.2018 04:10 -1,4 C 89 % 1012,4 hPa 0,0 l/m 2,9 km/h (1 Bft) O 79 -3,0 C -1,4 C 6,4 km/h (2 Bft)
16.12.2018 04:05 -1,3 C 89 % 1012,6 hPa 0,0 l/m 2,7 km/h (1 Bft) SO 129 -2,9 C -1,3 C 6,4 km/h (2 Bft)
16.12.2018 04:00 -1,3 C 90 % 1012,8 hPa 0,0 l/m 1,8 km/h (1 Bft) O 90 -2,7 C -1,3 C 4,8 km/h (1 Bft)
16.12.2018 03:55 -1,3 C 90 % 1012,8 hPa 0,0 l/m 2,6 km/h (1 Bft) O-SO 107 -2,7 C -1,3 C 9,7 km/h (2 Bft)
16.12.2018 03:50 -1,3 C 89 % 1012,9 hPa 0,0 l/m 2,2 km/h (1 Bft) O 90 -2,9 C -1,3 C 6,4 km/h (2 Bft)
16.12.2018 03:45 -1,3 C 89 % 1013,0 hPa 0,0 l/m 2,0 km/h (1 Bft) O 91 -2,9 C -1,3 C 4,8 km/h (1 Bft)
16.12.2018 03:40 -1,3 C 89 % 1013,1 hPa 0,0 l/m 3,4 km/h (1 Bft) O-SO 117 -2,9 C -1,3 C 9,7 km/h (2 Bft)
16.12.2018 03:35 -1,3 C 89 % 1013,0 hPa 0,0 l/m 3,8 km/h (1 Bft) O 100 -2,9 C -1,3 C 12,9 km/h (3 Bft)
16.12.2018 03:30 -1,4 C 89 % 1013,0 hPa 0,0 l/m 3,7 km/h (1 Bft) O-SO 113 -3,0 C -1,4 C 11,3 km/h (2 Bft)
16.12.2018 03:25 -1,4 C 90 % 1013,0 hPa 0,0 l/m 3,6 km/h (1 Bft) S-SW 202 -2,8 C -1,4 C 12,9 km/h (3 Bft)
16.12.2018 03:20 -1,4 C 89 % 1013,1 hPa 0,0 l/m 3,5 km/h (1 Bft) O-SO 112 -3,0 C -1,4 C 11,3 km/h (2 Bft)
16.12.2018 03:15 -1,4 C 89 % 1013,2 hPa 0,0 l/m 3,8 km/h (1 Bft) S-SO 147 -3,0 C -1,4 C 16,1 km/h (3 Bft)
16.12.2018 03:10 -1,4 C 89 % 1013,4 hPa 0,0 l/m 4,4 km/h (1 Bft) O-SO 105 -3,0 C -1,4 C 9,7 km/h (2 Bft)
16.12.2018 03:05 -1,4 C 88 % 1013,8 hPa 0,0 l/m 4,0 km/h (1 Bft) NO 35 -3,1 C -1,4 C 14,5 km/h (3 Bft)
16.12.2018 03:00 -1,4 C 88 % 1013,8 hPa 0,0 l/m 4,3 km/h (1 Bft) O-NO 65 -3,1 C -1,4 C 14,5 km/h (3 Bft)
_ Min-Zeit 04:30 13:40 07:55 - 12:05 - - 05:45 04:35 12:05
Minimum _ -1,6 C 83 % 1011,7 hPa - 0,0 km/h (0 Bft) - - -3,3 C -1,6 C 0,0 km/h (0 Bft)
_ Max-Zeit 13:30 00:50 00:55 13:10 04:25 - - 16:05 13:20 03:15
Maximum _ 3,2 C 96 % 1015,3 hPa 0,2 l/m 5,7 km/h
O-SO (2 Bft)
- - 1,8 C 3,1 C 16,1 km/h
O (3 Bft)
Durchschnitt _ 0,6 C 89 % 1013,1 hPa #1,8 l/m 1,3 km/h (1 Bft) O-SO - -0,9 C 0,6 C 4,7 km/h (1 Bft)
www.klaudt.eu